createdAt,value
2018-08-03T00:00:08.957Z,22.71
2018-08-03T00:02:38.117Z,22.73
2018-08-03T00:05:07.899Z,22.74
2018-08-03T00:07:36.821Z,22.71
2018-08-03T00:10:06.970Z,22.82
2018-08-03T00:12:36.105Z,22.79
2018-08-03T00:15:06.015Z,22.66
2018-08-03T00:17:35.293Z,22.61
2018-08-03T00:20:05.489Z,22.50
2018-08-03T00:22:34.677Z,22.52
2018-08-03T00:25:03.709Z,22.48
2018-08-03T00:27:32.668Z,22.42
2018-08-03T00:30:01.592Z,22.45
2018-08-03T00:32:30.537Z,22.50
2018-08-03T00:34:59.549Z,22.54
2018-08-03T00:37:28.492Z,22.51
2018-08-03T00:39:57.617Z,22.51
2018-08-03T00:42:26.604Z,22.58
2018-08-03T00:44:55.678Z,22.53
2018-08-03T00:47:24.589Z,22.51
2018-08-03T00:49:53.940Z,22.46
2018-08-03T00:52:22.929Z,22.46
2018-08-03T00:54:51.952Z,22.46
2018-08-03T00:57:20.948Z,22.43
2018-08-03T00:59:50.344Z,22.37
2018-08-03T01:02:19.525Z,22.31
2018-08-03T01:04:48.439Z,22.26
2018-08-03T01:07:17.447Z,22.20
2018-08-03T01:09:46.435Z,22.23
2018-08-03T01:12:15.389Z,22.17
2018-08-03T01:14:44.340Z,22.17
2018-08-03T01:17:13.327Z,22.14
2018-08-03T01:19:42.266Z,22.14
2018-08-03T01:22:11.223Z,22.17
2018-08-03T01:24:40.152Z,22.16
2018-08-03T01:27:09.091Z,22.12
2018-08-03T01:29:38.035Z,22.05
2018-08-03T01:32:06.995Z,22.05
2018-08-03T01:34:35.903Z,22.05
2018-08-03T01:37:04.957Z,21.98
2018-08-03T01:39:33.896Z,21.96
2018-08-03T01:42:02.833Z,21.96
2018-08-03T01:44:31.836Z,22.01
2018-08-03T01:47:00.774Z,22.08
2018-08-03T01:49:29.704Z,22.09
2018-08-03T01:51:58.717Z,22.04
2018-08-03T01:54:27.636Z,22.07
2018-08-03T01:56:56.598Z,22.03
2018-08-03T01:59:25.499Z,21.96
2018-08-03T02:01:54.406Z,21.95
2018-08-03T02:04:23.339Z,21.80
2018-08-03T02:06:52.258Z,21.77
2018-08-03T02:09:21.231Z,21.73
2018-08-03T02:11:50.188Z,21.78
2018-08-03T02:14:19.116Z,21.80
2018-08-03T02:16:48.032Z,21.78
2018-08-03T02:19:17.006Z,21.70
2018-08-03T02:21:45.930Z,21.64
2018-08-03T02:24:14.980Z,21.64
2018-08-03T02:26:43.895Z,21.71
2018-08-03T02:29:12.846Z,21.72
2018-08-03T02:31:41.785Z,21.75
2018-08-03T02:34:11.401Z,21.73
2018-08-03T02:36:40.404Z,21.71
2018-08-03T02:39:11.043Z,21.77
2018-08-03T02:41:40.227Z,21.84
2018-08-03T02:44:09.707Z,21.86
2018-08-03T02:49:06.791Z,21.85
2018-08-03T02:51:35.717Z,21.91
2018-08-03T02:54:04.669Z,21.90
2018-08-03T02:56:33.605Z,21.90
2018-08-03T02:59:02.548Z,21.91
2018-08-03T03:01:31.470Z,21.84
2018-08-03T03:04:00.401Z,21.85
2018-08-03T03:06:29.311Z,21.82
2018-08-03T03:08:58.239Z,21.82
2018-08-03T03:11:27.160Z,21.78
2018-08-03T03:13:56.101Z,21.78
2018-08-03T03:16:25.248Z,21.82
2018-08-03T03:18:54.197Z,21.86
2018-08-03T03:21:23.154Z,21.83
2018-08-03T03:23:52.070Z,21.88
2018-08-03T03:26:21.011Z,21.77
2018-08-03T03:28:49.932Z,21.73
2018-08-03T03:31:18.828Z,21.72
2018-08-03T03:33:47.893Z,21.70
2018-08-03T03:36:16.868Z,21.67
2018-08-03T03:38:45.820Z,21.64
2018-08-03T03:41:14.765Z,21.64
2018-08-03T03:43:43.766Z,21.61
2018-08-03T03:46:12.680Z,21.58
2018-08-03T03:48:41.619Z,21.56
2018-08-03T03:51:10.577Z,21.58
2018-08-03T03:53:39.562Z,21.61
2018-08-03T03:56:08.479Z,21.53
2018-08-03T03:58:37.452Z,21.59
2018-08-03T04:01:06.572Z,21.62
2018-08-03T04:03:35.519Z,21.71
2018-08-03T04:06:04.452Z,21.71
2018-08-03T04:08:33.368Z,21.75
2018-08-03T04:11:02.470Z,21.71
2018-08-03T04:13:31.403Z,21.74
2018-08-03T04:16:00.357Z,21.80
2018-08-03T04:18:29.284Z,21.86
2018-08-03T04:20:59.399Z,21.90
2018-08-03T04:23:28.849Z,21.92
2018-08-03T04:25:57.834Z,21.93
2018-08-03T04:28:26.824Z,21.95
2018-08-03T04:30:55.789Z,21.84
2018-08-03T04:33:24.717Z,21.78
2018-08-03T04:35:53.772Z,21.82
2018-08-03T04:38:22.713Z,21.96
2018-08-03T04:40:51.696Z,22.01
2018-08-03T04:43:20.639Z,22.02
2018-08-03T04:45:49.593Z,22.11
2018-08-03T04:48:18.548Z,22.16
2018-08-03T04:50:47.504Z,22.31
2018-08-03T04:53:16.401Z,22.38
2018-08-03T04:55:45.335Z,22.36
2018-08-03T04:58:14.321Z,22.47
2018-08-03T05:00:43.294Z,22.58
2018-08-03T05:03:12.207Z,22.73
2018-08-03T05:05:41.173Z,22.79
2018-08-03T05:08:10.184Z,22.92
2018-08-03T05:10:39.186Z,23.02
2018-08-03T05:13:08.175Z,22.99
2018-08-03T05:15:37.142Z,23.00
2018-08-03T05:18:06.440Z,23.11
2018-08-03T05:20:35.396Z,23.22
2018-08-03T05:23:04.338Z,23.33
2018-08-03T05:25:33.281Z,23.37
2018-08-03T05:28:02.481Z,23.40
2018-08-03T05:30:31.502Z,23.46
2018-08-03T05:33:00.550Z,23.47
2018-08-03T05:35:29.523Z,23.62
2018-08-03T05:37:58.454Z,23.56
2018-08-03T05:40:27.434Z,23.56
2018-08-03T05:42:56.392Z,23.75
2018-08-03T05:45:25.510Z,23.79
2018-08-03T05:47:54.511Z,23.91
2018-08-03T05:50:23.505Z,23.96
2018-08-03T05:52:52.507Z,24.07
2018-08-03T05:55:21.513Z,24.31
2018-08-03T05:57:50.468Z,24.39
2018-08-03T06:00:19.674Z,25.02
2018-08-03T06:02:48.795Z,25.51
2018-08-03T06:05:17.998Z,26.42
2018-08-03T06:07:46.926Z,27.22
2018-08-03T06:10:15.855Z,27.36
2018-08-03T06:12:44.791Z,27.67
2018-08-03T06:15:13.778Z,27.43
2018-08-03T06:17:42.765Z,27.96
2018-08-03T06:20:13.203Z,28.74
2018-08-03T06:22:42.495Z,29.26
2018-08-03T06:25:11.751Z,29.28
2018-08-03T06:27:40.666Z,29.31
2018-08-03T06:30:11.303Z,30.16
2018-08-03T06:32:40.241Z,30.34
2018-08-03T06:35:09.223Z,30.38
2018-08-03T06:37:38.156Z,30.49
2018-08-03T06:40:07.110Z,30.75
2018-08-03T06:42:36.047Z,30.68
2018-08-03T06:45:05.244Z,30.50
2018-08-03T06:47:34.165Z,30.60
2018-08-03T06:50:03.135Z,30.74
2018-08-03T06:52:32.059Z,30.52
2018-08-03T06:55:01.067Z,30.46
2018-08-03T06:57:30.066Z,30.22
2018-08-03T06:59:58.994Z,29.68
2018-08-03T07:02:28.007Z,29.43
2018-08-03T07:04:56.956Z,29.17
2018-08-03T07:07:25.982Z,28.81
2018-08-03T07:09:54.935Z,28.16
2018-08-03T07:12:23.937Z,28.22
2018-08-03T07:14:53.525Z,28.88
2018-08-03T07:17:22.432Z,29.52
2018-08-03T07:19:51.470Z,29.88
2018-08-03T07:22:20.494Z,29.84
2018-08-03T07:24:49.545Z,29.59
2018-08-03T07:27:18.491Z,29.23
2018-08-03T07:29:47.404Z,28.58
2018-08-03T07:32:16.312Z,28.34
2018-08-03T07:34:45.261Z,28.69
2018-08-03T07:37:14.206Z,28.76
2018-08-03T07:39:43.169Z,29.70
2018-08-03T07:42:12.093Z,30.35
2018-08-03T07:44:41.058Z,31.20
2018-08-03T07:47:10.383Z,31.48
2018-08-03T07:49:39.305Z,31.59
2018-08-03T07:52:08.454Z,32.28
2018-08-03T07:54:37.516Z,32.70
2018-08-03T07:57:06.574Z,33.09
2018-08-03T07:59:35.504Z,33.30
2018-08-03T08:02:04.461Z,34.36
2018-08-03T08:04:33.398Z,34.01
2018-08-03T08:07:02.336Z,33.99
2018-08-03T08:09:31.309Z,34.46
2018-08-03T08:12:00.230Z,34.20
2018-08-03T08:14:29.152Z,33.78
2018-08-03T08:16:58.249Z,33.80
2018-08-03T08:19:27.131Z,33.67
2018-08-03T08:21:56.066Z,32.55
2018-08-03T08:24:25.279Z,32.27
2018-08-03T08:26:54.394Z,31.86
2018-08-03T08:29:23.476Z,31.36
2018-08-03T08:31:52.431Z,30.89
2018-08-03T08:34:21.352Z,30.92
2018-08-03T08:36:50.445Z,31.52
2018-08-03T08:39:19.328Z,32.54
2018-08-03T08:41:48.269Z,32.94
2018-08-03T08:44:17.254Z,33.02
2018-08-03T08:46:46.213Z,32.97
2018-08-03T08:49:15.126Z,32.81
2018-08-03T08:51:44.074Z,32.78
2018-08-03T08:54:13.052Z,32.63
2018-08-03T08:56:42.004Z,32.18
2018-08-03T08:59:10.932Z,32.31
2018-08-03T09:01:39.881Z,32.56
2018-08-03T09:04:08.825Z,33.45
2018-08-03T09:06:37.854Z,34.12
2018-08-03T09:09:09.628Z,34.40
2018-08-03T09:11:39.217Z,35.21
2018-08-03T09:14:08.141Z,35.04
2018-08-03T09:16:37.098Z,34.71
2018-08-03T09:19:06.050Z,34.58
2018-08-03T09:21:34.974Z,33.79
2018-08-03T09:24:03.935Z,33.28
2018-08-03T09:26:33.492Z,33.53
2018-08-03T09:29:02.565Z,33.60
2018-08-03T09:31:31.489Z,33.59
2018-08-03T09:34:00.468Z,33.53
2018-08-03T09:36:29.453Z,34.31
2018-08-03T09:38:58.339Z,35.05
2018-08-03T09:41:27.257Z,35.81
2018-08-03T09:43:56.210Z,36.33
2018-08-03T09:46:25.296Z,36.33
2018-08-03T09:48:54.213Z,36.82
2018-08-03T09:51:23.194Z,36.08
2018-08-03T09:53:52.385Z,36.29
2018-08-03T09:56:21.319Z,35.96
2018-08-03T09:58:50.285Z,35.99
2018-08-03T10:01:19.211Z,35.98
2018-08-03T10:03:48.143Z,36.22
2018-08-03T10:06:17.108Z,36.67
2018-08-03T10:08:46.052Z,37.32
2018-08-03T10:11:15.860Z,36.98
2018-08-03T10:13:45.023Z,37.43
2018-08-03T10:16:13.946Z,37.30
2018-08-03T10:18:42.964Z,37.60
2018-08-03T10:21:12.044Z,37.84
2018-08-03T10:23:41.070Z,37.78
2018-08-03T10:26:10.025Z,37.58
2018-08-03T10:28:38.982Z,37.80
2018-08-03T10:31:11.890Z,37.10
2018-08-03T10:33:40.908Z,37.73
2018-08-03T10:36:10.440Z,37.87
2018-08-03T10:38:39.992Z,37.71
2018-08-03T10:41:08.980Z,37.67
2018-08-03T10:43:38.051Z,37.62
2018-08-03T10:46:06.991Z,37.74
2018-08-03T10:48:36.045Z,38.49
2018-08-03T10:51:05.010Z,38.07
2018-08-03T10:53:33.944Z,37.79
2018-08-03T10:56:02.919Z,37.49
2018-08-03T10:58:32.036Z,38.08
2018-08-03T11:01:00.987Z,38.69
2018-08-03T11:03:30.080Z,38.83
2018-08-03T11:05:59.102Z,38.39
2018-08-03T11:08:28.066Z,38.59
2018-08-03T11:10:57.085Z,38.19
2018-08-03T11:13:26.146Z,38.32
2018-08-03T11:15:55.075Z,38.70
2018-08-03T11:18:24.047Z,38.97
2018-08-03T11:20:53.058Z,38.90
2018-08-03T11:23:22.029Z,39.75
2018-08-03T11:25:51.027Z,39.79
2018-08-03T11:28:20.273Z,39.44
2018-08-03T11:30:49.198Z,39.99
2018-08-03T11:33:18.596Z,39.62
2018-08-03T11:35:47.656Z,39.76
2018-08-03T11:38:16.543Z,39.24
2018-08-03T11:40:45.593Z,38.66
2018-08-03T11:43:14.532Z,39.13
2018-08-03T11:45:43.494Z,40.03
2018-08-03T11:48:12.419Z,39.77
2018-08-03T11:50:41.454Z,39.18
2018-08-03T11:53:10.644Z,38.42
2018-08-03T12:07:06.042Z,40.33
2018-08-03T12:09:34.961Z,39.41
2018-08-03T12:12:03.904Z,38.56
2018-08-03T12:14:32.880Z,37.13
2018-08-03T12:17:01.845Z,37.01
2018-08-03T12:19:30.838Z,37.77
2018-08-03T12:21:59.774Z,38.26
2018-08-03T12:24:28.756Z,38.65
2018-08-03T12:26:57.704Z,38.75
2018-08-03T12:29:26.712Z,39.01
2018-08-03T12:31:55.644Z,40.12
2018-08-03T12:34:24.593Z,40.19
2018-08-03T12:36:53.527Z,39.69
2018-08-03T12:39:22.573Z,39.53
2018-08-03T12:41:51.675Z,38.39
2018-08-03T12:44:20.670Z,37.44
2018-08-03T12:46:49.598Z,37.24
2018-08-03T12:49:18.556Z,36.75
2018-08-03T12:51:47.588Z,36.40
2018-08-03T12:54:16.505Z,35.91
2018-08-03T12:56:45.636Z,35.86
2018-08-03T12:59:14.972Z,35.22
2018-08-03T13:01:44.093Z,35.66
2018-08-03T13:04:13.157Z,36.73
2018-08-03T13:06:42.467Z,37.97
2018-08-03T13:09:11.578Z,37.68
2018-08-03T13:11:41.150Z,37.96
2018-08-03T13:14:10.090Z,37.83
2018-08-03T13:16:39.886Z,39.22
2018-08-03T13:19:08.940Z,40.42
2018-08-03T13:21:39.668Z,40.20
2018-08-03T13:24:08.607Z,38.54
2018-08-03T13:26:37.599Z,38.26
2018-08-03T13:29:06.587Z,37.77
2018-08-03T13:31:35.586Z,37.64
2018-08-03T13:34:04.674Z,37.35
2018-08-03T13:36:33.687Z,36.34
2018-08-03T13:39:11.331Z,35.90
2018-08-03T13:41:41.299Z,36.44
2018-08-03T13:44:11.340Z,37.51
2018-08-03T13:46:40.383Z,37.35
2018-08-03T13:49:09.701Z,37.76
2018-08-03T13:51:38.738Z,39.03
2018-08-03T13:54:07.745Z,38.71
2018-08-03T13:56:36.768Z,39.27
2018-08-03T13:59:06.079Z,39.53
2018-08-03T14:01:43.744Z,39.65
2018-08-03T14:04:12.707Z,39.79
2018-08-03T14:06:41.609Z,39.22
2018-08-03T14:09:10.522Z,38.54
2018-08-03T14:11:39.462Z,37.91
2018-08-03T14:14:08.391Z,37.24
2018-08-03T14:16:37.378Z,36.85
2018-08-03T14:19:06.321Z,36.85
2018-08-03T14:21:35.258Z,36.32
2018-08-03T14:24:04.191Z,36.47
2018-08-03T14:26:33.106Z,36.81
2018-08-03T14:29:02.049Z,37.14
2018-08-03T14:31:31.073Z,37.52
2018-08-03T14:33:59.903Z,38.07
2018-08-03T14:36:28.868Z,38.96
2018-08-03T14:38:57.796Z,39.56
2018-08-03T14:41:26.699Z,39.45
2018-08-03T14:43:55.723Z,39.31
2018-08-03T14:46:24.766Z,39.06
2018-08-03T14:48:54.050Z,38.75
2018-08-03T14:51:22.996Z,39.20
2018-08-03T14:53:51.914Z,39.07
2018-08-03T14:56:20.872Z,38.73
2018-08-03T14:58:49.843Z,39.07
2018-08-03T15:01:18.797Z,39.09
2018-08-03T15:03:47.781Z,38.65
2018-08-03T15:06:16.757Z,37.85
2018-08-03T15:08:45.871Z,37.22
2018-08-03T15:11:14.846Z,36.83
2018-08-03T15:13:43.857Z,36.28
2018-08-03T15:16:12.812Z,35.83
2018-08-03T15:18:41.801Z,35.72
2018-08-03T15:21:10.753Z,35.68
2018-08-03T15:23:39.688Z,35.46
2018-08-03T15:26:08.634Z,35.35
2018-08-03T15:28:37.592Z,35.64
2018-08-03T15:31:06.572Z,36.30
2018-08-03T15:33:35.529Z,35.98
2018-08-03T15:36:04.474Z,35.91
2018-08-03T15:38:33.505Z,35.74
2018-08-03T15:41:02.473Z,35.54
2018-08-03T15:43:31.432Z,35.45
2018-08-03T15:46:00.347Z,35.37
2018-08-03T15:48:29.339Z,35.16
2018-08-03T15:50:58.316Z,34.79
2018-08-03T15:53:27.344Z,34.57
2018-08-03T15:55:56.373Z,34.77
2018-08-03T15:58:25.477Z,34.76
2018-08-03T16:00:54.499Z,35.39
2018-08-03T16:03:23.437Z,35.64
2018-08-03T16:05:52.393Z,35.77
2018-08-03T16:08:21.363Z,35.86
2018-08-03T16:10:50.409Z,36.13
2018-08-03T16:13:19.341Z,36.15
2018-08-03T16:15:48.268Z,36.27
2018-08-03T16:18:17.196Z,36.64
2018-08-03T16:20:46.211Z,36.93
2018-08-03T16:23:15.154Z,36.92
2018-08-03T16:25:44.126Z,37.38
2018-08-03T16:28:13.042Z,37.02
2018-08-03T16:30:42.046Z,36.99
2018-08-03T16:33:11.013Z,37.03
2018-08-03T16:35:39.958Z,36.48
2018-08-03T16:38:08.924Z,35.90
2018-08-03T16:40:38.235Z,35.91
2018-08-03T16:43:07.200Z,35.73
2018-08-03T16:45:36.197Z,35.44
2018-08-03T16:48:05.288Z,35.25
2018-08-03T16:50:34.232Z,35.26
2018-08-03T16:53:03.169Z,35.24
2018-08-03T16:55:32.188Z,35.04
2018-08-03T16:58:01.108Z,34.92
2018-08-03T17:00:30.088Z,34.90
2018-08-03T17:02:59.217Z,34.54
2018-08-03T17:05:28.148Z,34.42
2018-08-03T17:07:57.100Z,34.30
2018-08-03T17:10:26.093Z,34.17
2018-08-03T17:12:55.069Z,33.95
2018-08-03T17:15:23.974Z,33.87
2018-08-03T17:17:52.972Z,33.87
2018-08-03T17:20:21.968Z,33.75
2018-08-03T17:22:50.981Z,33.69
2018-08-03T17:25:19.916Z,33.79
2018-08-03T17:27:48.966Z,33.62
2018-08-03T17:30:17.969Z,33.60
2018-08-03T17:32:46.896Z,33.53
2018-08-03T17:35:15.816Z,33.39
2018-08-03T17:37:44.749Z,33.28
2018-08-03T17:40:13.659Z,33.11
2018-08-03T17:42:42.648Z,33.05
2018-08-03T17:45:11.554Z,32.97
2018-08-03T17:47:40.508Z,32.76
2018-08-03T17:50:09.647Z,32.61
2018-08-03T17:52:38.704Z,32.47
2018-08-03T17:55:07.739Z,32.48
2018-08-03T17:57:36.717Z,32.42
2018-08-03T18:00:06.108Z,32.21
2018-08-03T18:02:35.052Z,32.22
2018-08-03T18:05:03.988Z,32.14
2018-08-03T18:07:32.939Z,32.09
2018-08-03T18:10:01.908Z,32.11
2018-08-03T18:12:30.868Z,31.91
2018-08-03T18:14:59.796Z,31.82
2018-08-03T18:17:28.760Z,31.76
2018-08-03T18:19:57.856Z,31.62
2018-08-03T18:22:26.844Z,31.48
2018-08-03T18:25:00.621Z,31.46
2018-08-03T18:27:29.558Z,31.36
2018-08-03T18:29:58.556Z,31.26
2018-08-03T18:32:27.480Z,31.19
2018-08-03T18:34:56.499Z,31.09
2018-08-03T18:37:25.484Z,31.05
2018-08-03T18:39:54.829Z,30.93
2018-08-03T18:42:23.777Z,30.86
2018-08-03T18:44:52.748Z,30.78
2018-08-03T18:47:21.722Z,30.71
2018-08-03T18:49:50.679Z,30.67
2018-08-03T18:52:19.675Z,30.54
2018-08-03T18:54:48.594Z,30.48
2018-08-03T18:57:17.513Z,30.47
2018-08-03T18:59:46.432Z,30.39
2018-08-03T19:02:15.748Z,30.31
2018-08-03T19:04:44.697Z,30.26
2018-08-03T19:07:13.619Z,30.20
2018-08-03T19:09:42.542Z,30.14
2018-08-03T19:12:11.464Z,30.13
2018-08-03T19:14:40.392Z,30.05
2018-08-03T19:17:09.307Z,30.06
2018-08-03T19:19:38.216Z,30.12
2018-08-03T19:22:07.244Z,30.05
2018-08-03T19:24:36.109Z,29.91
2018-08-03T19:27:05.068Z,29.73
2018-08-03T19:29:33.973Z,29.77
2018-08-03T19:32:02.971Z,29.74
2018-08-03T19:34:31.922Z,29.70
2018-08-03T19:37:00.836Z,29.67
2018-08-03T19:39:29.740Z,29.53
2018-08-03T19:41:58.663Z,29.42
2018-08-03T19:44:27.598Z,29.36
2018-08-03T19:46:56.518Z,29.31
2018-08-03T19:49:25.461Z,29.22
2018-08-03T19:51:54.389Z,29.11
2018-08-03T19:54:23.326Z,29.11
2018-08-03T19:56:52.244Z,28.95
2018-08-03T19:59:21.192Z,28.87
2018-08-03T20:01:50.176Z,28.86
2018-08-03T20:04:19.088Z,28.80
2018-08-03T20:06:48.015Z,28.74
2018-08-03T20:09:17.041Z,28.67
2018-08-03T20:11:45.929Z,28.60
2018-08-03T20:14:14.841Z,28.56
2018-08-03T20:16:43.778Z,28.53
2018-08-03T20:19:12.800Z,28.53
2018-08-03T20:21:41.877Z,28.46
2018-08-03T20:24:10.785Z,28.42
2018-08-03T20:26:39.705Z,28.36
2018-08-03T20:29:08.644Z,28.40
2018-08-03T20:31:37.630Z,28.33
2018-08-03T20:34:06.898Z,28.33
2018-08-03T20:36:35.836Z,28.34
2018-08-03T20:39:07.488Z,28.32
2018-08-03T20:41:36.415Z,28.28
2018-08-03T20:44:05.328Z,28.21
2018-08-03T20:46:34.308Z,28.19
2018-08-03T20:49:03.298Z,28.20
2018-08-03T20:51:32.259Z,28.16
2018-08-03T20:54:01.208Z,28.11
2018-08-03T20:56:30.153Z,28.14
2018-08-03T20:58:59.146Z,28.13
2018-08-03T21:01:28.114Z,28.13
2018-08-03T21:03:57.060Z,28.17
2018-08-03T21:06:26.005Z,28.18
2018-08-03T21:08:54.952Z,28.18
2018-08-03T21:11:24.012Z,28.16
2018-08-03T21:13:52.949Z,28.08
2018-08-03T21:16:21.884Z,28.04
2018-08-03T21:18:50.807Z,27.95
2018-08-03T21:21:19.865Z,27.93
2018-08-03T21:23:48.831Z,27.90
2018-08-03T21:26:17.817Z,27.82
2018-08-03T21:28:46.738Z,27.77
2018-08-03T21:31:15.675Z,27.74
2018-08-03T21:33:44.641Z,27.70
2018-08-03T21:36:13.603Z,27.67
2018-08-03T21:38:42.628Z,27.57
2018-08-03T21:41:11.551Z,27.44
2018-08-03T21:43:40.517Z,27.38
2018-08-03T21:46:09.446Z,27.34
2018-08-03T21:48:38.395Z,27.28
2018-08-03T21:51:07.420Z,27.22
2018-08-03T21:53:37.153Z,27.10
2018-08-03T21:56:06.428Z,27.02
2018-08-03T21:58:35.374Z,26.98
2018-08-03T22:01:04.501Z,26.92
2018-08-03T22:03:33.550Z,26.81
2018-08-03T22:06:02.519Z,26.84
2018-08-03T22:08:31.464Z,26.87
2018-08-03T22:11:00.450Z,26.88
2018-08-03T22:13:29.404Z,26.86
2018-08-03T22:15:58.401Z,26.75
2018-08-03T22:18:28.421Z,26.76
2018-08-03T22:20:57.393Z,26.72
2018-08-03T22:23:26.333Z,26.64
2018-08-03T22:25:55.269Z,26.59
2018-08-03T22:28:24.203Z,26.54
2018-08-03T22:30:53.290Z,26.57
2018-08-03T22:33:22.264Z,26.57
2018-08-03T22:35:51.170Z,26.60
2018-08-03T22:38:20.100Z,26.57
2018-08-03T22:40:49.033Z,26.53
2018-08-03T22:43:17.942Z,26.57
2018-08-03T22:45:47.231Z,26.50
2018-08-03T22:48:16.781Z,26.40
2018-08-03T22:50:45.748Z,26.31
2018-08-03T22:53:15.597Z,26.24
2018-08-03T22:55:45.796Z,26.26
2018-08-03T22:58:14.745Z,26.21
2018-08-03T23:00:43.720Z,26.20
2018-08-03T23:03:12.682Z,26.14
2018-08-03T23:05:41.640Z,26.16
2018-08-03T23:08:10.752Z,26.01
2018-08-03T23:10:39.654Z,25.74
2018-08-03T23:13:08.605Z,25.57
2018-08-03T23:15:37.598Z,25.55
2018-08-03T23:18:06.623Z,25.39
2018-08-03T23:20:35.602Z,25.30
2018-08-03T23:23:04.541Z,25.23
2018-08-03T23:25:33.469Z,25.19
2018-08-03T23:28:02.390Z,25.18
2018-08-03T23:30:31.299Z,25.10
2018-08-03T23:33:00.264Z,25.03
2018-08-03T23:35:29.174Z,24.99
2018-08-03T23:37:58.157Z,24.90
2018-08-03T23:40:27.174Z,24.87
2018-08-03T23:42:56.111Z,24.81
2018-08-03T23:45:25.070Z,24.71
2018-08-03T23:47:54.038Z,24.64
2018-08-03T23:50:23.035Z,24.52
2018-08-03T23:52:51.963Z,24.44
2018-08-03T23:55:20.961Z,24.30
2018-08-03T23:57:49.929Z,24.20
